sensor_id;sensor_type;location;lat;lon;timestamp;P1;durP1;ratioP1;P2;durP2;ratioP2
42846;SDS011;28495;49.916;14.536;2022-07-29T00:03:30;2.90;;;1.40;;
42846;SDS011;28495;49.916;14.536;2022-07-29T00:08:51;6.07;;;1.30;;
42846;SDS011;28495;49.916;14.536;2022-07-29T00:14:11;2.25;;;1.35;;
42846;SDS011;28495;49.916;14.536;2022-07-29T00:19:33;2.60;;;1.42;;
42846;SDS011;28495;49.916;14.536;2022-07-29T00:24:54;1.85;;;1.38;;
42846;SDS011;28495;49.916;14.536;2022-07-29T00:30:15;7.65;;;1.90;;
42846;SDS011;28495;49.916;14.536;2022-07-29T00:35:35;2.80;;;1.70;;
42846;SDS011;28495;49.916;14.536;2022-07-29T00:41:05;4.25;;;1.70;;
42846;SDS011;28495;49.916;14.536;2022-07-29T00:46:26;7.40;;;1.90;;
42846;SDS011;28495;49.916;14.536;2022-07-29T00:51:47;4.22;;;1.60;;
42846;SDS011;28495;49.916;14.536;2022-07-29T00:57:09;10.30;;;2.55;;
42846;SDS011;28495;49.916;14.536;2022-07-29T01:02:30;2.60;;;1.60;;
42846;SDS011;28495;49.916;14.536;2022-07-29T01:07:52;5.15;;;1.85;;
42846;SDS011;28495;49.916;14.536;2022-07-29T01:13:14;6.10;;;1.52;;
42846;SDS011;28495;49.916;14.536;2022-07-29T01:18:42;1.50;;;1.40;;
42846;SDS011;28495;49.916;14.536;2022-07-29T01:30:14;6.22;;;1.70;;
42846;SDS011;28495;49.916;14.536;2022-07-29T01:35:36;4.82;;;2.13;;
42846;SDS011;28495;49.916;14.536;2022-07-29T01:41:05;4.25;;;1.90;;
42846;SDS011;28495;49.916;14.536;2022-07-29T01:46:31;2.22;;;1.55;;
42846;SDS011;28495;49.916;14.536;2022-07-29T01:51:57;3.53;;;1.83;;
42846;SDS011;28495;49.916;14.536;2022-07-29T01:57:27;3.58;;;1.92;;
42846;SDS011;28495;49.916;14.536;2022-07-29T02:02:50;3.47;;;1.73;;
42846;SDS011;28495;49.916;14.536;2022-07-29T02:08:13;1.95;;;1.40;;
42846;SDS011;28495;49.916;14.536;2022-07-29T02:13:37;6.20;;;1.90;;
42846;SDS011;28495;49.916;14.536;2022-07-29T02:18:58;3.00;;;1.88;;
42846;SDS011;28495;49.916;14.536;2022-07-29T02:24:22;2.10;;;1.77;;
42846;SDS011;28495;49.916;14.536;2022-07-29T02:29:45;1.85;;;1.70;;
42846;SDS011;28495;49.916;14.536;2022-07-29T02:35:08;1.73;;;1.63;;
42846;SDS011;28495;49.916;14.536;2022-07-29T02:40:29;2.50;;;1.73;;
42846;SDS011;28495;49.916;14.536;2022-07-29T02:45:51;3.42;;;1.70;;
42846;SDS011;28495;49.916;14.536;2022-07-29T02:51:16;2.35;;;1.73;;
42846;SDS011;28495;49.916;14.536;2022-07-29T02:57:00;2.53;;;1.65;;
42846;SDS011;28495;49.916;14.536;2022-07-29T03:02:26;9.02;;;2.03;;
42846;SDS011;28495;49.916;14.536;2022-07-29T03:07:52;1.70;;;1.45;;
42846;SDS011;28495;49.916;14.536;2022-07-29T03:13:17;2.33;;;1.67;;
42846;SDS011;28495;49.916;14.536;2022-07-29T03:18:39;4.60;;;1.60;;
42846;SDS011;28495;49.916;14.536;2022-07-29T03:23:59;4.38;;;2.17;;
42846;SDS011;28495;49.916;14.536;2022-07-29T03:29:20;3.60;;;1.60;;
42846;SDS011;28495;49.916;14.536;2022-07-29T03:34:40;1.67;;;1.52;;
42846;SDS011;28495;49.916;14.536;2022-07-29T03:40:02;3.30;;;1.85;;
42846;SDS011;28495;49.916;14.536;2022-07-29T03:45:25;2.10;;;1.60;;
42846;SDS011;28495;49.916;14.536;2022-07-29T03:50:49;2.72;;;2.10;;
42846;SDS011;28495;49.916;14.536;2022-07-29T03:56:10;7.72;;;1.83;;
42846;SDS011;28495;49.916;14.536;2022-07-29T04:01:37;2.42;;;1.80;;
42846;SDS011;28495;49.916;14.536;2022-07-29T04:06:58;3.03;;;2.00;;
42846;SDS011;28495;49.916;14.536;2022-07-29T04:12:19;4.30;;;1.80;;
42846;SDS011;28495;49.916;14.536;2022-07-29T04:17:41;3.45;;;2.20;;
42846;SDS011;28495;49.916;14.536;2022-07-29T04:23:02;3.15;;;1.80;;
42846;SDS011;28495;49.916;14.536;2022-07-29T04:28:23;2.80;;;2.53;;
42846;SDS011;28495;49.916;14.536;2022-07-29T04:33:43;4.57;;;2.17;;
42846;SDS011;28495;49.916;14.536;2022-07-29T04:39:04;2.58;;;1.63;;
42846;SDS011;28495;49.916;14.536;2022-07-29T04:44:26;4.78;;;1.75;;
42846;SDS011;28495;49.916;14.536;2022-07-29T04:49:48;3.55;;;1.95;;
42846;SDS011;28495;49.916;14.536;2022-07-29T04:55:09;2.00;;;1.80;;
42846;SDS011;28495;49.916;14.536;2022-07-29T05:00:30;5.65;;;2.78;;
42846;SDS011;28495;49.916;14.536;2022-07-29T05:05:52;3.22;;;1.83;;
42846;SDS011;28495;49.916;14.536;2022-07-29T05:11:13;5.47;;;2.00;;
42846;SDS011;28495;49.916;14.536;2022-07-29T05:16:40;3.42;;;1.83;;
42846;SDS011;28495;49.916;14.536;2022-07-29T05:22:02;2.65;;;1.77;;
42846;SDS011;28495;49.916;14.536;2022-07-29T05:27:23;3.15;;;1.73;;
42846;SDS011;28495;49.916;14.536;2022-07-29T05:32:43;4.05;;;1.98;;
42846;SDS011;28495;49.916;14.536;2022-07-29T05:38:04;3.53;;;2.08;;
42846;SDS011;28495;49.916;14.536;2022-07-29T05:43:27;3.17;;;1.80;;
42846;SDS011;28495;49.916;14.536;2022-07-29T05:48:48;2.92;;;2.10;;
42846;SDS011;28495;49.916;14.536;2022-07-29T05:54:09;3.35;;;2.08;;
42846;SDS011;28495;49.916;14.536;2022-07-29T05:59:31;4.22;;;2.20;;
42846;SDS011;28495;49.916;14.536;2022-07-29T06:04:56;5.53;;;1.95;;
42846;SDS011;28495;49.916;14.536;2022-07-29T06:10:17;6.70;;;2.30;;
42846;SDS011;28495;49.916;14.536;2022-07-29T06:15:38;7.45;;;1.92;;
42846;SDS011;28495;49.916;14.536;2022-07-29T06:20:58;3.03;;;2.10;;
42846;SDS011;28495;49.916;14.536;2022-07-29T06:26:19;6.90;;;2.00;;
42846;SDS011;28495;49.916;14.536;2022-07-29T06:31:50;4.53;;;2.17;;
42846;SDS011;28495;49.916;14.536;2022-07-29T06:37:11;10.13;;;2.60;;
42846;SDS011;28495;49.916;14.536;2022-07-29T06:42:35;3.92;;;2.40;;
42846;SDS011;28495;49.916;14.536;2022-07-29T06:47:56;8.20;;;2.40;;
42846;SDS011;28495;49.916;14.536;2022-07-29T06:53:16;6.82;;;3.17;;
42846;SDS011;28495;49.916;14.536;2022-07-29T06:58:37;5.97;;;2.78;;
42846;SDS011;28495;49.916;14.536;2022-07-29T07:03:57;4.50;;;2.80;;
42846;SDS011;28495;49.916;14.536;2022-07-29T07:09:18;3.67;;;2.05;;
42846;SDS011;28495;49.916;14.536;2022-07-29T07:14:39;3.85;;;1.90;;
42846;SDS011;28495;49.916;14.536;2022-07-29T07:20:01;3.50;;;2.30;;
42846;SDS011;28495;49.916;14.536;2022-07-29T07:25:22;2.72;;;2.20;;
42846;SDS011;28495;49.916;14.536;2022-07-29T07:30:44;10.57;;;2.55;;
42846;SDS011;28495;49.916;14.536;2022-07-29T07:36:05;3.10;;;2.20;;
42846;SDS011;28495;49.916;14.536;2022-07-29T07:41:26;4.03;;;2.53;;
42846;SDS011;28495;49.916;14.536;2022-07-29T07:46:51;6.13;;;2.40;;
42846;SDS011;28495;49.916;14.536;2022-07-29T07:52:14;6.15;;;2.35;;
42846;SDS011;28495;49.916;14.536;2022-07-29T07:57:36;2.47;;;2.03;;
42846;SDS011;28495;49.916;14.536;2022-07-29T08:02:57;11.68;;;4.03;;
42846;SDS011;28495;49.916;14.536;2022-07-29T08:08:18;5.10;;;2.30;;
42846;SDS011;28495;49.916;14.536;2022-07-29T08:13:39;3.08;;;1.52;;
42846;SDS011;28495;49.916;14.536;2022-07-29T08:19:00;4.50;;;2.03;;
42846;SDS011;28495;49.916;14.536;2022-07-29T08:24:21;4.43;;;2.53;;
42846;SDS011;28495;49.916;14.536;2022-07-29T08:30:00;5.50;;;2.03;;
42846;SDS011;28495;49.916;14.536;2022-07-29T08:35:22;5.28;;;2.17;;
42846;SDS011;28495;49.916;14.536;2022-07-29T08:40:43;3.53;;;2.20;;
42846;SDS011;28495;49.916;14.536;2022-07-29T08:46:05;7.82;;;2.10;;
42846;SDS011;28495;49.916;14.536;2022-07-29T08:51:25;3.67;;;2.20;;
42846;SDS011;28495;49.916;14.536;2022-07-29T08:56:48;4.18;;;1.95;;
42846;SDS011;28495;49.916;14.536;2022-07-29T09:02:12;7.18;;;1.98;;
42846;SDS011;28495;49.916;14.536;2022-07-29T09:07:42;4.53;;;2.20;;
42846;SDS011;28495;49.916;14.536;2022-07-29T09:13:04;5.40;;;2.65;;
42846;SDS011;28495;49.916;14.536;2022-07-29T09:29:30;4.97;;;2.58;;
42846;SDS011;28495;49.916;14.536;2022-07-29T09:35:18;7.70;;;2.80;;
42846;SDS011;28495;49.916;14.536;2022-07-29T09:40:39;6.95;;;2.40;;
42846;SDS011;28495;49.916;14.536;2022-07-29T09:46:10;6.57;;;2.55;;
42846;SDS011;28495;49.916;14.536;2022-07-29T09:51:35;4.63;;;2.30;;
42846;SDS011;28495;49.916;14.536;2022-07-29T09:56:58;4.65;;;2.35;;
42846;SDS011;28495;49.916;14.536;2022-07-29T10:02:18;4.68;;;2.42;;
42846;SDS011;28495;49.916;14.536;2022-07-29T10:07:47;5.53;;;2.17;;
42846;SDS011;28495;49.916;14.536;2022-07-29T10:13:14;6.35;;;2.50;;
42846;SDS011;28495;49.916;14.536;2022-07-29T10:18:37;4.75;;;2.40;;
42846;SDS011;28495;49.916;14.536;2022-07-29T10:23:59;3.25;;;2.60;;
42846;SDS011;28495;49.916;14.536;2022-07-29T10:29:21;5.20;;;2.20;;
42846;SDS011;28495;49.916;14.536;2022-07-29T10:46:38;6.53;;;3.23;;
42846;SDS011;28495;49.916;14.536;2022-07-29T10:57:29;2.50;;;2.30;;
42846;SDS011;28495;49.916;14.536;2022-07-29T11:15:00;8.13;;;2.60;;
42846;SDS011;28495;49.916;14.536;2022-07-29T11:31:36;7.40;;;3.00;;
42846;SDS011;28495;49.916;14.536;2022-07-29T11:42:37;3.58;;;2.83;;
42846;SDS011;28495;49.916;14.536;2022-07-29T11:48:01;3.92;;;2.72;;
42846;SDS011;28495;49.916;14.536;2022-07-29T11:53:46;2.92;;;2.63;;
42846;SDS011;28495;49.916;14.536;2022-07-29T11:59:11;3.80;;;2.83;;
42846;SDS011;28495;49.916;14.536;2022-07-29T12:04:47;3.80;;;3.25;;
42846;SDS011;28495;49.916;14.536;2022-07-29T12:10:15;6.65;;;2.80;;
42846;SDS011;28495;49.916;14.536;2022-07-29T12:15:56;2.60;;;2.40;;
42846;SDS011;28495;49.916;14.536;2022-07-29T12:21:19;8.57;;;4.07;;
42846;SDS011;28495;49.916;14.536;2022-07-29T12:32:16;3.50;;;2.95;;
42846;SDS011;28495;49.916;14.536;2022-07-29T12:37:39;3.40;;;3.10;;
42846;SDS011;28495;49.916;14.536;2022-07-29T12:48:37;7.22;;;3.60;;
42846;SDS011;28495;49.916;14.536;2022-07-29T12:54:03;3.67;;;3.10;;
42846;SDS011;28495;49.916;14.536;2022-07-29T12:59:30;4.88;;;3.08;;
42846;SDS011;28495;49.916;14.536;2022-07-29T13:04:58;5.63;;;2.88;;
42846;SDS011;28495;49.916;14.536;2022-07-29T13:10:20;6.35;;;2.97;;
42846;SDS011;28495;49.916;14.536;2022-07-29T13:15:44;9.02;;;2.97;;
42846;SDS011;28495;49.916;14.536;2022-07-29T13:21:13;5.50;;;2.80;;
42846;SDS011;28495;49.916;14.536;2022-07-29T13:31:59;6.95;;;2.63;;
42846;SDS011;28495;49.916;14.536;2022-07-29T13:37:20;4.03;;;3.00;;
42846;SDS011;28495;49.916;14.536;2022-07-29T13:42:41;7.00;;;2.72;;
42846;SDS011;28495;49.916;14.536;2022-07-29T13:48:02;5.03;;;3.25;;
42846;SDS011;28495;49.916;14.536;2022-07-29T13:53:23;3.85;;;3.03;;
42846;SDS011;28495;49.916;14.536;2022-07-29T13:58:46;4.82;;;2.70;;
42846;SDS011;28495;49.916;14.536;2022-07-29T14:04:07;3.92;;;2.70;;
42846;SDS011;28495;49.916;14.536;2022-07-29T14:09:28;4.53;;;2.53;;
42846;SDS011;28495;49.916;14.536;2022-07-29T14:14:59;3.20;;;2.22;;
42846;SDS011;28495;49.916;14.536;2022-07-29T14:20:21;5.40;;;2.85;;
42846;SDS011;28495;49.916;14.536;2022-07-29T14:25:44;4.70;;;3.05;;
42846;SDS011;28495;49.916;14.536;2022-07-29T14:31:05;5.55;;;2.78;;
42846;SDS011;28495;49.916;14.536;2022-07-29T14:36:25;3.78;;;3.30;;
42846;SDS011;28495;49.916;14.536;2022-07-29T14:41:48;3.65;;;2.75;;
42846;SDS011;28495;49.916;14.536;2022-07-29T14:47:09;10.45;;;3.38;;
42846;SDS011;28495;49.916;14.536;2022-07-29T14:52:30;3.28;;;2.97;;
42846;SDS011;28495;49.916;14.536;2022-07-29T14:57:51;4.38;;;2.92;;
42846;SDS011;28495;49.916;14.536;2022-07-29T15:03:20;4.15;;;2.80;;
42846;SDS011;28495;49.916;14.536;2022-07-29T15:08:43;4.57;;;3.10;;
42846;SDS011;28495;49.916;14.536;2022-07-29T15:14:04;5.18;;;3.45;;
42846;SDS011;28495;49.916;14.536;2022-07-29T15:19:25;5.95;;;3.38;;
42846;SDS011;28495;49.916;14.536;2022-07-29T15:24:46;4.78;;;3.20;;
42846;SDS011;28495;49.916;14.536;2022-07-29T15:30:07;4.25;;;3.03;;
42846;SDS011;28495;49.916;14.536;2022-07-29T15:35:28;3.70;;;3.15;;
42846;SDS011;28495;49.916;14.536;2022-07-29T15:40:49;3.45;;;3.15;;
42846;SDS011;28495;49.916;14.536;2022-07-29T15:46:13;5.40;;;3.05;;
42846;SDS011;28495;49.916;14.536;2022-07-29T15:51:53;3.75;;;3.13;;
42846;SDS011;28495;49.916;14.536;2022-07-29T15:57:18;3.92;;;3.45;;
42846;SDS011;28495;49.916;14.536;2022-07-29T16:02:40;3.67;;;3.17;;
42846;SDS011;28495;49.916;14.536;2022-07-29T16:08:00;5.20;;;3.20;;
42846;SDS011;28495;49.916;14.536;2022-07-29T16:13:21;4.78;;;3.17;;
42846;SDS011;28495;49.916;14.536;2022-07-29T16:18:43;4.18;;;3.00;;
42846;SDS011;28495;49.916;14.536;2022-07-29T16:24:05;4.72;;;3.80;;
42846;SDS011;28495;49.916;14.536;2022-07-29T16:29:26;4.55;;;3.22;;
42846;SDS011;28495;49.916;14.536;2022-07-29T16:34:48;3.88;;;3.42;;
42846;SDS011;28495;49.916;14.536;2022-07-29T16:40:09;7.10;;;3.50;;
42846;SDS011;28495;49.916;14.536;2022-07-29T16:45:31;4.80;;;3.40;;
42846;SDS011;28495;49.916;14.536;2022-07-29T16:51:05;6.63;;;3.58;;
42846;SDS011;28495;49.916;14.536;2022-07-29T16:56:26;3.00;;;2.70;;
42846;SDS011;28495;49.916;14.536;2022-07-29T17:01:47;7.28;;;3.45;;
42846;SDS011;28495;49.916;14.536;2022-07-29T17:07:08;4.43;;;3.20;;
42846;SDS011;28495;49.916;14.536;2022-07-29T17:12:29;9.15;;;2.92;;
42846;SDS011;28495;49.916;14.536;2022-07-29T17:17:50;4.05;;;3.20;;
42846;SDS011;28495;49.916;14.536;2022-07-29T17:23:16;3.83;;;3.40;;
42846;SDS011;28495;49.916;14.536;2022-07-29T17:28:36;5.03;;;3.30;;
42846;SDS011;28495;49.916;14.536;2022-07-29T17:33:58;5.32;;;3.40;;
42846;SDS011;28495;49.916;14.536;2022-07-29T17:39:19;4.05;;;2.90;;
42846;SDS011;28495;49.916;14.536;2022-07-29T17:44:39;3.10;;;2.80;;
42846;SDS011;28495;49.916;14.536;2022-07-29T17:50:00;6.68;;;4.35;;
42846;SDS011;28495;49.916;14.536;2022-07-29T17:55:21;4.38;;;2.85;;
42846;SDS011;28495;49.916;14.536;2022-07-29T18:00:42;5.82;;;2.70;;
42846;SDS011;28495;49.916;14.536;2022-07-29T18:06:02;5.88;;;2.90;;
42846;SDS011;28495;49.916;14.536;2022-07-29T18:11:24;3.17;;;2.88;;
42846;SDS011;28495;49.916;14.536;2022-07-29T18:16:45;4.80;;;2.22;;
42846;SDS011;28495;49.916;14.536;2022-07-29T18:22:05;6.75;;;2.38;;
42846;SDS011;28495;49.916;14.536;2022-07-29T18:27:27;3.95;;;2.83;;
42846;SDS011;28495;49.916;14.536;2022-07-29T18:32:49;3.08;;;2.70;;
42846;SDS011;28495;49.916;14.536;2022-07-29T18:38:30;2.92;;;2.70;;
42846;SDS011;28495;49.916;14.536;2022-07-29T18:43:51;3.38;;;2.75;;
42846;SDS011;28495;49.916;14.536;2022-07-29T18:49:13;4.07;;;2.90;;
42846;SDS011;28495;49.916;14.536;2022-07-29T18:54:34;3.60;;;2.58;;
42846;SDS011;28495;49.916;14.536;2022-07-29T18:59:55;2.92;;;2.63;;
42846;SDS011;28495;49.916;14.536;2022-07-29T19:05:16;3.53;;;3.05;;
42846;SDS011;28495;49.916;14.536;2022-07-29T19:10:36;2.53;;;2.33;;
42846;SDS011;28495;49.916;14.536;2022-07-29T19:15:57;5.85;;;3.15;;
42846;SDS011;28495;49.916;14.536;2022-07-29T19:21:20;3.50;;;3.00;;
42846;SDS011;28495;49.916;14.536;2022-07-29T19:26:41;4.05;;;2.97;;
42846;SDS011;28495;49.916;14.536;2022-07-29T19:32:06;3.97;;;2.83;;
42846;SDS011;28495;49.916;14.536;2022-07-29T19:37:27;7.70;;;3.58;;
42846;SDS011;28495;49.916;14.536;2022-07-29T19:42:47;3.90;;;3.30;;
42846;SDS011;28495;49.916;14.536;2022-07-29T19:48:11;5.38;;;3.60;;
42846;SDS011;28495;49.916;14.536;2022-07-29T19:53:31;4.57;;;3.55;;
42846;SDS011;28495;49.916;14.536;2022-07-29T19:58:52;4.63;;;3.65;;
42846;SDS011;28495;49.916;14.536;2022-07-29T20:04:14;4.05;;;3.35;;
42846;SDS011;28495;49.916;14.536;2022-07-29T20:09:35;5.88;;;3.67;;
42846;SDS011;28495;49.916;14.536;2022-07-29T20:14:56;4.53;;;3.80;;
42846;SDS011;28495;49.916;14.536;2022-07-29T20:20:18;3.90;;;3.50;;
42846;SDS011;28495;49.916;14.536;2022-07-29T20:25:41;5.20;;;3.80;;
42846;SDS011;28495;49.916;14.536;2022-07-29T20:31:02;3.97;;;3.58;;
42846;SDS011;28495;49.916;14.536;2022-07-29T20:36:23;5.47;;;3.75;;
42846;SDS011;28495;49.916;14.536;2022-07-29T20:41:44;5.18;;;3.80;;
42846;SDS011;28495;49.916;14.536;2022-07-29T20:47:04;3.97;;;3.58;;
42846;SDS011;28495;49.916;14.536;2022-07-29T20:52:25;7.20;;;3.63;;
42846;SDS011;28495;49.916;14.536;2022-07-29T20:57:46;6.85;;;4.00;;
42846;SDS011;28495;49.916;14.536;2022-07-29T21:03:06;5.05;;;3.80;;
42846;SDS011;28495;49.916;14.536;2022-07-29T21:08:27;7.95;;;4.10;;
42846;SDS011;28495;49.916;14.536;2022-07-29T21:13:48;5.75;;;3.75;;
42846;SDS011;28495;49.916;14.536;2022-07-29T21:19:09;9.85;;;5.03;;
42846;SDS011;28495;49.916;14.536;2022-07-29T21:24:30;4.70;;;3.80;;
42846;SDS011;28495;49.916;14.536;2022-07-29T21:29:51;5.70;;;3.58;;
42846;SDS011;28495;49.916;14.536;2022-07-29T21:35:11;7.47;;;3.85;;
42846;SDS011;28495;49.916;14.536;2022-07-29T21:40:52;4.90;;;3.67;;
42846;SDS011;28495;49.916;14.536;2022-07-29T21:46:13;5.00;;;4.22;;
42846;SDS011;28495;49.916;14.536;2022-07-29T21:51:35;4.75;;;4.10;;
42846;SDS011;28495;49.916;14.536;2022-07-29T21:56:56;8.65;;;4.00;;
42846;SDS011;28495;49.916;14.536;2022-07-29T22:02:17;6.03;;;4.20;;
42846;SDS011;28495;49.916;14.536;2022-07-29T22:07:38;5.93;;;3.90;;
42846;SDS011;28495;49.916;14.536;2022-07-29T22:13:15;6.55;;;4.05;;
42846;SDS011;28495;49.916;14.536;2022-07-29T22:18:36;5.00;;;3.92;;
42846;SDS011;28495;49.916;14.536;2022-07-29T22:23:57;8.52;;;4.00;;
42846;SDS011;28495;49.916;14.536;2022-07-29T22:29:19;3.90;;;3.50;;
42846;SDS011;28495;49.916;14.536;2022-07-29T22:34:40;10.27;;;5.00;;
42846;SDS011;28495;49.916;14.536;2022-07-29T22:40:01;4.60;;;3.67;;
42846;SDS011;28495;49.916;14.536;2022-07-29T22:45:23;4.88;;;3.63;;
42846;SDS011;28495;49.916;14.536;2022-07-29T22:50:44;3.65;;;3.20;;
42846;SDS011;28495;49.916;14.536;2022-07-29T22:56:04;6.10;;;4.10;;
42846;SDS011;28495;49.916;14.536;2022-07-29T23:01:25;6.57;;;4.25;;
42846;SDS011;28495;49.916;14.536;2022-07-29T23:06:57;6.07;;;3.65;;
42846;SDS011;28495;49.916;14.536;2022-07-29T23:12:18;4.65;;;3.72;;
42846;SDS011;28495;49.916;14.536;2022-07-29T23:17:39;4.40;;;3.63;;
42846;SDS011;28495;49.916;14.536;2022-07-29T23:23:00;4.50;;;2.67;;
42846;SDS011;28495;49.916;14.536;2022-07-29T23:28:20;4.00;;;2.00;;
42846;SDS011;28495;49.916;14.536;2022-07-29T23:33:41;2.30;;;1.80;;
42846;SDS011;28495;49.916;14.536;2022-07-29T23:39:02;2.08;;;1.63;;
42846;SDS011;28495;49.916;14.536;2022-07-29T23:44:23;1.90;;;1.58;;
42846;SDS011;28495;49.916;14.536;2022-07-29T23:49:44;1.40;;;1.30;;
42846;SDS011;28495;49.916;14.536;2022-07-29T23:55:05;2.13;;;1.30;;
